Terminal Aerodrome Forecast
Issued by NWS

Home | Current Version | Previous Version | Text Only | Print | Product List | Glossary On
Versions: 1 2 3 4 5 6 7 8 9 10 11 12 13 14 15
124
FTAK31 PAJN 171134
TAFAGY
TAF
PAGY 171134Z 1712/1812 21020G30KT P6SM SCT050 BKN080 OVC100
      TEMPO 1712/1716 20015KT 6SM -SHRA BKN050
     FM171900 21015G25KT P6SM SCT060 BKN080 OVC100
     FM172300 21012KT P6SM -SHRA FEW004 BKN040 OVC060
      AMD LTD TO CLD VIS AND WIND=

USA.gov is the U.S. government's official web portal to all federal, state and local government web resources and services.